Time;durP1;ratioP1;P1;durP2;ratioP2;P2;SDS_P1;SDS_P2;PMS_P1;PMS_P2;Temp;Humidity;BMP_temperature;BMP_pressure;BME280_temperature;BME280_humidity;BME280_pressure;Samples;Min_cycle;Max_cycle;Signal;HPM_P1;HPM_P2
2020/12/21 00:00:34;;;;;;;14.87;7.87;;;;;;;;;;5013380;28;20653;-77
2020/12/21 00:03:18;;;;;;;16.15;9.35;;;;;;;;;;5012638;28;20455;-77
2020/12/21 00:06:07;;;;;;;18.13;7.87;;;;;;;;;;5012724;28;20202;-78
2020/12/21 00:08:52;;;;;;;15.90;7.33;;;;;;;;;;5013148;28;20238;-78
2020/12/21 00:11:38;;;;;;;16.77;8.13;;;;;;;;;;5012850;28;20199;-80
2020/12/21 00:14:22;;;;;;;15.60;7.33;;;;;;;;;;5013028;28;20597;-79
2020/12/21 00:17:07;;;;;;;18.77;7.97;;;;;;;;;;5011892;28;20294;-80
2020/12/21 00:19:52;;;;;;;14.13;7.33;;;;;;;;;;5011762;28;20263;-80
2020/12/21 00:22:36;;;;;;;19.40;7.97;;;;;;;;;;5012938;28;20206;-79
2020/12/21 00:25:21;;;;;;;13.93;7.30;;;;;;;;;;5012097;28;20211;-79
2020/12/21 00:28:06;;;;;;;16.63;7.47;;;;;;;;;;5012197;28;20287;-77
2020/12/21 00:30:50;;;;;;;18.40;8.20;;;;;;;;;;5012768;28;20765;-79
2020/12/21 00:33:35;;;;;;;16.85;8.13;;;;;;;;;;5012397;28;20577;-78
2020/12/21 00:36:19;;;;;;;18.33;9.43;;;;;;;;;;5010849;28;21099;-79
2020/12/21 00:39:04;;;;;;;18.63;8.50;;;;;;;;;;5012412;28;20295;-79
2020/12/21 00:41:49;;;;;;;18.97;7.63;;;;;;;;;;5012499;28;20222;-79
2020/12/21 00:44:33;;;;;;;14.70;7.57;;;;;;;;;;5012479;28;20241;-79
2020/12/21 00:47:18;;;;;;;16.20;7.50;;;;;;;;;;5010131;28;20241;-79
2020/12/21 00:50:03;;;;;;;15.63;7.27;;;;;;;;;;5010071;28;20310;-79
2020/12/21 00:52:47;;;;;;;14.13;7.63;;;;;;;;;;5012341;28;20207;-78
2020/12/21 00:55:32;;;;;;;21.20;7.83;;;;;;;;;;5011591;28;20705;-80
2020/12/21 00:58:17;;;;;;;18.47;8.23;;;;;;;;;;5012016;28;20242;-80
2020/12/21 01:01:03;;;;;;;14.93;7.83;;;;;;;;;;5012195;28;20613;-80
2020/12/21 01:03:47;;;;;;;21.70;8.17;;;;;;;;;;5012131;28;20198;-78
2020/12/21 01:06:32;;;;;;;21.67;8.20;;;;;;;;;;5011678;28;20226;-80
2020/12/21 01:09:17;;;;;;;17.87;7.77;;;;;;;;;;5012029;28;20242;-80
2020/12/21 01:12:01;;;;;;;14.87;7.80;;;;;;;;;;5012118;28;20603;-79
2020/12/21 01:14:48;;;;;;;15.40;8.43;;;;;;;;;;5012222;28;20267;-80
2020/12/21 01:17:32;;;;;;;17.80;7.90;;;;;;;;;;5011301;28;20344;-80
2020/12/21 01:20:17;;;;;;;20.17;8.70;;;;;;;;;;5010913;28;20206;-80
2020/12/21 01:23:01;;;;;;;15.67;8.10;;;;;;;;;;5010690;28;20255;-79
2020/12/21 01:25:46;;;;;;;18.90;8.33;;;;;;;;;;5011825;28;20565;-80
2020/12/21 01:28:30;;;;;;;15.07;8.17;;;;;;;;;;5011763;28;20206;-77
2020/12/21 01:31:16;;;;;;;16.90;8.90;;;;;;;;;;5011672;28;20298;-80
2020/12/21 01:34:01;;;;;;;15.67;8.90;;;;;;;;;;5011701;28;20199;-80
2020/12/21 01:36:45;;;;;;;20.10;8.70;;;;;;;;;;5011092;28;20222;-80
2020/12/21 01:39:30;;;;;;;23.63;8.90;;;;;;;;;;5011206;28;20211;-79
2020/12/21 01:42:15;;;;;;;16.43;7.90;;;;;;;;;;5011489;28;20203;-79
2020/12/21 01:45:00;;;;;;;18.83;8.07;;;;;;;;;;5011579;28;20694;-80
2020/12/21 01:47:46;;;;;;;18.83;8.33;;;;;;;;;;5010437;28;20605;-79
2020/12/21 01:50:31;;;;;;;15.10;8.03;;;;;;;;;;5011149;28;20314;-79
2020/12/21 01:53:15;;;;;;;19.30;8.53;;;;;;;;;;5011436;28;20614;-79
2020/12/21 01:56:02;;;;;;;18.70;8.13;;;;;;;;;;5009557;28;20242;-80
2020/12/21 01:58:47;;;;;;;17.43;7.93;;;;;;;;;;5011330;28;20206;-79
2020/12/21 02:01:32;;;;;;;17.53;7.47;;;;;;;;;;5011335;28;20203;-78
2020/12/21 02:04:17;;;;;;;25.97;8.83;;;;;;;;;;5011400;28;20202;-80
2020/12/21 02:07:02;;;;;;;17.60;7.67;;;;;;;;;;5010770;28;20223;-79
2020/12/21 02:09:46;;;;;;;20.07;7.87;;;;;;;;;;5014906;28;20357;-80
2020/12/21 02:12:30;;;;;;;20.00;8.98;;;;;;;;;;5015210;28;20466;-80
2020/12/21 02:15:15;;;;;;;16.10;7.90;;;;;;;;;;5014358;28;20254;-80
2020/12/21 02:17:59;;;;;;;17.20;7.10;;;;;;;;;;5014708;28;20222;-79
2020/12/21 02:20:45;;;;;;;16.07;7.93;;;;;;;;;;5015194;28;20258;-79
2020/12/21 02:23:29;;;;;;;15.20;7.67;;;;;;;;;;5014843;28;20199;-79
2020/12/21 02:26:14;;;;;;;17.97;7.63;;;;;;;;;;5014495;28;20657;-80
2020/12/21 02:28:59;;;;;;;14.90;7.20;;;;;;;;;;5014981;28;20278;-79
2020/12/21 02:31:43;;;;;;;18.83;8.00;;;;;;;;;;5014942;28;20198;-79
2020/12/21 02:34:28;;;;;;;14.80;7.17;;;;;;;;;;5014555;28;20249;-80
2020/12/21 02:37:13;;;;;;;20.00;7.40;;;;;;;;;;5014365;28;20693;-80
2020/12/21 02:39:57;;;;;;;18.33;7.00;;;;;;;;;;5014650;28;20334;-80
2020/12/21 02:42:42;;;;;;;14.40;7.07;;;;;;;;;;5014703;28;20207;-81
2020/12/21 02:45:27;;;;;;;17.90;7.13;;;;;;;;;;5013800;28;20697;-80
2020/12/21 02:48:11;;;;;;;14.00;6.63;;;;;;;;;;5013966;28;20222;-79
2020/12/21 02:50:56;;;;;;;17.97;7.33;;;;;;;;;;5014592;28;20561;-80
2020/12/21 02:53:41;;;;;;;19.87;7.03;;;;;;;;;;5013326;28;20298;-80
2020/12/21 02:56:25;;;;;;;18.43;7.20;;;;;;;;;;5013751;28;20600;-80
2020/12/21 02:59:10;;;;;;;17.37;7.27;;;;;;;;;;5014497;28;20250;-80
2020/12/21 03:01:55;;;;;;;17.73;7.27;;;;;;;;;;5014582;28;20238;-80
2020/12/21 03:04:39;;;;;;;20.30;7.50;;;;;;;;;;5014591;28;20350;-80
2020/12/21 03:07:24;;;;;;;19.47;7.50;;;;;;;;;;5013784;28;20226;-80
2020/12/21 03:10:09;;;;;;;17.33;7.43;;;;;;;;;;5014239;28;20627;-79
2020/12/21 03:12:54;;;;;;;18.67;7.40;;;;;;;;;;5014227;28;20202;-80
2020/12/21 03:15:38;;;;;;;20.83;7.23;;;;;;;;;;5013113;28;20789;-78
2020/12/21 03:18:22;;;;;;;17.50;8.97;;;;;;;;;;5013509;28;20478;-80
2020/12/21 03:21:07;;;;;;;18.93;7.90;;;;;;;;;;5013730;28;20564;-81
2020/12/21 03:23:51;;;;;;;17.37;7.07;;;;;;;;;;5013909;28;20250;-80
2020/12/21 03:26:37;;;;;;;19.33;7.67;;;;;;;;;;5013068;28;20249;-80
2020/12/21 03:29:21;;;;;;;19.03;7.43;;;;;;;;;;5013593;28;20224;-78
2020/12/21 03:32:06;;;;;;;17.80;7.53;;;;;;;;;;5013707;28;20210;-80
2020/12/21 03:34:52;;;;;;;15.77;7.33;;;;;;;;;;5013678;28;20326;-79
2020/12/21 03:37:36;;;;;;;14.60;7.07;;;;;;;;;;5013202;28;20338;-80
2020/12/21 03:40:21;;;;;;;17.70;7.70;;;;;;;;;;5013366;28;20319;-78
2020/12/21 03:43:06;;;;;;;16.60;7.23;;;;;;;;;;5013655;28;20786;-79
2020/12/21 03:45:50;;;;;;;16.57;7.70;;;;;;;;;;5013160;28;20207;-78
2020/12/21 03:48:35;;;;;;;18.50;6.97;;;;;;;;;;5013421;28;20211;-79
2020/12/21 03:51:19;;;;;;;18.55;9.48;;;;;;;;;;5012098;28;20455;-78
2020/12/21 03:54:04;;;;;;;16.13;7.33;;;;;;;;;;5013621;28;20221;-79
2020/12/21 03:56:48;;;;;;;15.60;7.17;;;;;;;;;;5013071;28;20222;-78
2020/12/21 03:59:34;;;;;;;18.33;7.47;;;;;;;;;;5013338;28;20250;-78
2020/12/21 04:02:18;;;;;;;17.10;7.17;;;;;;;;;;5013216;28;20238;-77
2020/12/21 04:05:03;;;;;;;17.60;7.17;;;;;;;;;;5012797;28;20210;-79
2020/12/21 04:07:47;;;;;;;14.00;7.00;;;;;;;;;;5011396;28;20257;-79
2020/12/21 04:10:32;;;;;;;16.00;6.20;;;;;;;;;;5013198;28;20578;-79
2020/12/21 04:13:17;;;;;;;18.23;7.23;;;;;;;;;;5013247;28;20250;-79
2020/12/21 04:16:02;;;;;;;14.60;6.80;;;;;;;;;;5012062;28;20312;-78
2020/12/21 04:18:47;;;;;;;14.17;6.50;;;;;;;;;;5012855;28;20198;-78
2020/12/21 04:21:31;;;;;;;14.17;6.13;;;;;;;;;;5013258;28;20234;-78
2020/12/21 04:24:16;;;;;;;18.27;7.40;;;;;;;;;;5012652;28;20199;-78
2020/12/21 04:27:00;;;;;;;17.50;6.63;;;;;;;;;;5012531;28;20350;-79
2020/12/21 04:29:45;;;;;;;15.20;6.47;;;;;;;;;;5012777;28;20246;-78
2020/12/21 04:32:30;;;;;;;20.27;7.17;;;;;;;;;;5012009;28;20238;-78
2020/12/21 04:35:15;;;;;;;16.17;6.50;;;;;;;;;;5012535;28;20373;-78
2020/12/21 04:37:59;;;;;;;13.17;6.70;;;;;;;;;;5012021;28;20226;-78
2020/12/21 04:40:49;;;;;;;14.40;6.30;;;;;;;;;;5012509;28;20674;-78
2020/12/21 04:43:33;;;;;;;16.83;6.70;;;;;;;;;;5012314;28;20266;-78
2020/12/21 04:46:18;;;;;;;18.90;6.77;;;;;;;;;;5011780;28;20246;-78
2020/12/21 04:49:04;;;;;;;18.97;6.70;;;;;;;;;;5012428;28;20269;-78
2020/12/21 04:51:50;;;;;;;16.13;6.83;;;;;;;;;;5012608;28;20210;-78
2020/12/21 04:54:34;;;;;;;16.33;6.53;;;;;;;;;;5012444;28;20289;-78
2020/12/21 04:57:19;;;;;;;15.73;7.63;;;;;;;;;;5011055;28;20432;-78
2020/12/21 05:00:04;;;;;;;14.83;6.00;;;;;;;;;;5012585;28;20234;-78
2020/12/21 05:02:48;;;;;;;13.40;6.40;;;;;;;;;;5012230;28;20251;-78
2020/12/21 05:05:34;;;;;;;15.93;6.13;;;;;;;;;;5011843;28;20557;-78
2020/12/21 05:08:20;;;;;;;17.40;6.00;;;;;;;;;;5012055;28;20202;-78
2020/12/21 05:11:05;;;;;;;14.87;6.17;;;;;;;;;;5011961;28;20198;-78
2020/12/21 05:13:50;;;;;;;14.23;6.10;;;;;;;;;;5011906;28;20202;-78
2020/12/21 05:16:34;;;;;;;12.30;5.33;;;;;;;;;;5011002;28;20258;-78
2020/12/21 05:19:22;;;;;;;17.70;6.00;;;;;;;;;;5011556;28;20202;-78
2020/12/21 05:22:11;;;;;;;12.77;5.73;;;;;;;;;;5011666;28;20238;-78
2020/12/21 05:25:03;;;;;;;14.17;5.53;;;;;;;;;;5011699;28;20269;-77
2020/12/21 05:27:47;;;;;;;14.50;6.88;;;;;;;;;;5010754;28;20411;-78
2020/12/21 05:30:32;;;;;;;13.60;5.47;;;;;;;;;;5011791;28;20210;-78
2020/12/21 05:33:17;;;;;;;16.83;4.90;;;;;;;;;;5011557;28;20273;-79
2020/12/21 05:36:05;;;;;;;16.47;5.80;;;;;;;;;;5010916;28;20733;-78
2020/12/21 05:38:57;;;;;;;16.17;5.50;;;;;;;;;;5011558;28;20202;-78
2020/12/21 05:41:42;;;;;;;15.97;5.07;;;;;;;;;;5011421;28;20230;-78
2020/12/21 05:44:26;;;;;;;13.43;5.20;;;;;;;;;;5011321;28;20286;-78
2020/12/21 05:47:11;;;;;;;15.00;5.37;;;;;;;;;;5010773;28;20241;-79
2020/12/21 05:49:56;;;;;;;13.80;5.20;;;;;;;;;;5011383;28;20210;-78
2020/12/21 05:52:41;;;;;;;13.93;5.00;;;;;;;;;;5011410;28;20347;-78
2020/12/21 05:55:26;;;;;;;15.43;5.03;;;;;;;;;;5011211;28;20227;-79
2020/12/21 05:58:11;;;;;;;11.33;5.00;;;;;;;;;;5011269;28;20202;-79
2020/12/21 06:00:56;;;;;;;13.30;4.80;;;;;;;;;;5011508;28;20249;-79
2020/12/21 06:03:42;;;;;;;12.17;5.10;;;;;;;;;;5011261;28;20202;-79
2020/12/21 06:06:28;;;;;;;15.83;5.27;;;;;;;;;;5010681;28;20219;-79
2020/12/21 06:09:14;;;;;;;17.50;5.90;;;;;;;;;;5011303;28;20207;-79
2020/12/21 06:12:00;;;;;;;12.90;5.93;;;;;;;;;;5011229;28;20229;-78
2020/12/21 06:14:45;;;;;;;14.07;6.00;;;;;;;;;;5011054;28;20202;-78
2020/12/21 06:17:29;;;;;;;13.70;6.20;;;;;;;;;;5010585;28;20304;-79
2020/12/21 06:20:14;;;;;;;15.40;5.60;;;;;;;;;;5010934;28;20281;-79
2020/12/21 06:23:08;;;;;;;15.73;6.00;;;;;;;;;;5010803;28;20210;-78
2020/12/21 06:25:53;;;;;;;15.33;6.20;;;;;;;;;;5010677;28;20550;-77
2020/12/21 06:28:38;;;;;;;11.77;5.20;;;;;;;;;;5011052;28;20295;-79
2020/12/21 06:31:22;;;;;;;16.07;5.50;;;;;;;;;;5011115;28;20694;-78
2020/12/21 06:34:08;;;;;;;11.57;4.93;;;;;;;;;;5011043;28;20265;-78
2020/12/21 06:36:59;;;;;;;11.37;5.67;;;;;;;;;;5010168;28;20289;-78
2020/12/21 06:39:43;;;;;;;15.13;5.90;;;;;;;;;;5011097;28;20250;-78
2020/12/21 06:42:28;;;;;;;15.57;5.57;;;;;;;;;;5010765;28;20706;-78
2020/12/21 06:45:14;;;;;;;16.60;6.40;;;;;;;;;;5010994;28;20206;-78
2020/12/21 06:47:58;;;;;;;10.60;5.40;;;;;;;;;;5010277;28;20752;-78
2020/12/21 06:50:43;;;;;;;12.30;5.37;;;;;;;;;;5010929;28;20285;-79
2020/12/21 06:53:27;;;;;;;12.47;6.13;;;;;;;;;;5011080;28;20211;-79
2020/12/21 06:56:12;;;;;;;16.73;6.33;;;;;;;;;;5014178;28;20247;-78
2020/12/21 06:58:57;;;;;;;13.93;6.17;;;;;;;;;;5014320;28;20199;-78
2020/12/21 07:01:43;;;;;;;19.00;5.87;;;;;;;;;;5014418;28;20199;-79
2020/12/21 07:04:28;;;;;;;18.33;6.13;;;;;;;;;;5014392;28;20202;-79
2020/12/21 07:07:12;;;;;;;15.43;5.87;;;;;;;;;;5013905;28;20697;-79
2020/12/21 07:09:57;;;;;;;16.23;7.10;;;;;;;;;;5013504;28;20466;-79
2020/12/21 07:12:41;;;;;;;12.97;6.00;;;;;;;;;;5014337;28;20287;-79
2020/12/21 07:15:26;;;;;;;11.70;5.97;;;;;;;;;;5013903;28;20230;-79
2020/12/21 07:18:11;;;;;;;15.93;6.50;;;;;;;;;;5013541;28;20226;-78
2020/12/21 07:20:56;;;;;;;14.60;6.10;;;;;;;;;;5013720;28;20203;-79
2020/12/21 07:23:41;;;;;;;16.27;6.00;;;;;;;;;;5013747;28;20246;-78
2020/12/21 07:26:26;;;;;;;13.97;6.10;;;;;;;;;;5013408;28;20322;-79
2020/12/21 07:29:10;;;;;;;10.87;5.77;;;;;;;;;;5013859;28;20238;-79
2020/12/21 07:31:55;;;;;;;12.27;5.63;;;;;;;;;;5013782;28;20242;-80
2020/12/21 07:34:40;;;;;;;11.60;5.43;;;;;;;;;;5013841;28;20249;-81
2020/12/21 07:37:25;;;;;;;14.20;6.03;;;;;;;;;;5009197;28;20234;-81
2020/12/21 07:40:17;;;;;;;14.37;5.70;;;;;;;;;;4997411;28;20206;-78
2020/12/21 07:43:02;;;;;;;11.60;5.57;;;;;;;;;;5010304;28;20206;-77
2020/12/21 07:45:48;;;;;;;15.20;5.67;;;;;;;;;;5002782;28;20267;-80
2020/12/21 07:48:33;;;;;;;12.70;6.13;;;;;;;;;;4993691;28;20606;-80
2020/12/21 07:51:20;;;;;;;14.83;5.87;;;;;;;;;;4993552;28;20257;-78
2020/12/21 07:54:04;;;;;;;15.27;6.17;;;;;;;;;;5001310;28;20677;-81
2020/12/21 07:56:58;;;;;;;13.07;5.90;;;;;;;;;;5012666;28;20258;-82
2020/12/21 07:59:43;;;;;;;12.47;6.17;;;;;;;;;;5013443;28;20254;-77
2020/12/21 08:02:27;;;;;;;15.63;6.03;;;;;;;;;;5013017;28;20199;-80
2020/12/21 08:05:17;;;;;;;15.07;5.80;;;;;;;;;;5012480;28;20751;-78
2020/12/21 08:08:12;;;;;;;11.23;5.17;;;;;;;;;;5012697;28;20191;-78
2020/12/21 08:10:57;;;;;;;12.40;5.40;;;;;;;;;;5013074;28;20293;-76
2020/12/21 08:13:44;;;;;;;12.80;6.10;;;;;;;;;;5013103;28;20418;-77
2020/12/21 08:16:29;;;;;;;13.40;6.23;;;;;;;;;;5011909;28;20642;-76
2020/12/21 08:19:20;;;;;;;11.63;5.70;;;;;;;;;;5012834;28;20207;-79
2020/12/21 08:22:05;;;;;;;10.50;5.63;;;;;;;;;;5012893;28;20326;-79
2020/12/21 08:24:59;;;;;;;10.50;5.40;;;;;;;;;;5012786;28;20219;-78
2020/12/21 08:27:48;;;;;;;10.93;5.30;;;;;;;;;;5012333;28;20494;-78
2020/12/21 08:30:32;;;;;;;10.67;5.20;;;;;;;;;;5012716;28;20566;-77
2020/12/21 08:33:17;;;;;;;10.90;5.13;;;;;;;;;;5012648;28;20206;-81
2020/12/21 08:36:18;;;;;;;11.57;5.30;;;;;;;;;;5011554;28;20230;-77
2020/12/21 08:39:04;;;;;;;13.07;5.13;;;;;;;;;;5012117;28;20241;-77
2020/12/21 08:41:53;;;;;;;11.17;5.50;;;;;;;;;;5012250;28;20220;-77
2020/12/21 08:44:37;;;;;;;10.77;5.23;;;;;;;;;;5012276;28;20220;-80
2020/12/21 08:47:22;;;;;;;14.60;6.00;;;;;;;;;;5010479;28;20415;-80
2020/12/21 08:50:06;;;;;;;10.90;5.47;;;;;;;;;;5012296;28;20258;-80
2020/12/21 08:52:51;;;;;;;12.00;5.23;;;;;;;;;;5012097;28;20199;-81
2020/12/21 08:55:35;;;;;;;13.50;5.17;;;;;;;;;;5012203;28;20381;-80
2020/12/21 08:58:21;;;;;;;8.43;5.10;;;;;;;;;;5012257;28;20226;-77
2020/12/21 09:01:06;;;;;;;11.47;4.90;;;;;;;;;;5012474;28;20199;-80
2020/12/21 09:03:50;;;;;;;10.17;4.87;;;;;;;;;;5009393;28;20210;-79
2020/12/21 09:06:35;;;;;;;14.47;5.30;;;;;;;;;;4999910;28;20398;-80
2020/12/21 09:09:19;;;;;;;10.77;4.97;;;;;;;;;;5004173;28;20232;-79
2020/12/21 09:12:04;;;;;;;9.07;5.00;;;;;;;;;;5010935;28;20204;-79
2020/12/21 09:14:49;;;;;;;11.23;4.97;;;;;;;;;;4992100;28;20204;-79
2020/12/21 09:17:33;;;;;;;9.53;4.87;;;;;;;;;;4991121;28;20308;-78
2020/12/21 09:20:18;;;;;;;13.63;5.43;;;;;;;;;;4992450;28;20391;-79
2020/12/21 09:23:02;;;;;;;9.67;4.80;;;;;;;;;;4991921;28;20216;-79
2020/12/21 09:25:47;;;;;;;12.60;4.83;;;;;;;;;;4991854;28;20230;-79
2020/12/21 09:28:31;;;;;;;9.10;4.43;;;;;;;;;;4991909;28;20200;-78
2020/12/21 09:31:17;;;;;;;11.13;4.73;;;;;;;;;;4991959;28;20252;-78
2020/12/21 09:34:01;;;;;;;7.70;4.60;;;;;;;;;;4991619;28;20633;-78
2020/12/21 09:36:46;;;;;;;10.60;4.73;;;;;;;;;;4991102;28;20274;-78
2020/12/21 09:39:30;;;;;;;8.60;3.93;;;;;;;;;;5007735;28;20579;-77
2020/12/21 09:42:15;;;;;;;8.37;4.67;;;;;;;;;;5011463;28;20567;-78
2020/12/21 09:44:59;;;;;;;9.53;4.40;;;;;;;;;;5011243;28;20220;-81
2020/12/21 09:47:45;;;;;;;10.73;4.50;;;;;;;;;;5010521;28;20924;-80
2020/12/21 09:50:29;;;;;;;8.10;4.33;;;;;;;;;;5011155;28;20688;-80
2020/12/21 09:53:13;;;;;;;9.83;4.27;;;;;;;;;;5011184;28;20262;-80
2020/12/21 09:55:58;;;;;;;11.93;4.23;;;;;;;;;;5010903;28;20245;-79
2020/12/21 09:58:44;;;;;;;11.07;4.13;;;;;;;;;;5011484;28;20209;-82
2020/12/21 10:01:29;;;;;;;8.07;4.17;;;;;;;;;;5011654;28;20244;-80
2020/12/21 10:04:14;;;;;;;13.60;4.47;;;;;;;;;;5011296;28;20314;-79
2020/12/21 10:06:58;;;;;;;7.47;3.83;;;;;;;;;;5010710;28;20232;-80
2020/12/21 10:09:43;;;;;;;8.70;4.57;;;;;;;;;;5011050;28;20669;-80
2020/12/21 10:12:27;;;;;;;9.53;4.30;;;;;;;;;;5010987;28;20684;-79
2020/12/21 10:15:12;;;;;;;7.37;3.93;;;;;;;;;;5010869;28;20720;-81
2020/12/21 10:17:56;;;;;;;7.50;4.40;;;;;;;;;;5010147;28;20213;-81
2020/12/21 10:20:43;;;;;;;10.03;4.40;;;;;;;;;;5010981;28;20228;-79
2020/12/21 10:23:28;;;;;;;10.03;4.40;;;;;;;;;;5010853;28;20499;-80
2020/12/21 10:26:13;;;;;;;7.43;3.80;;;;;;;;;;5010322;28;20482;-80
2020/12/21 10:28:57;;;;;;;10.90;4.50;;;;;;;;;;5011280;28;20211;-80
2020/12/21 10:31:42;;;;;;;9.60;4.40;;;;;;;;;;5014607;28;20205;-81
2020/12/21 10:34:26;;;;;;;9.43;4.30;;;;;;;;;;5014245;28;20209;-80
2020/12/21 10:37:11;;;;;;;10.30;4.73;;;;;;;;;;5014091;28;20286;-79
2020/12/21 10:39:56;;;;;;;13.30;4.60;;;;;;;;;;5014466;28;20206;-80
2020/12/21 10:42:41;;;;;;;12.30;4.80;;;;;;;;;;5014624;28;20205;-80
2020/12/21 10:45:25;;;;;;;7.47;4.70;;;;;;;;;;5014446;28;20720;-81
2020/12/21 10:48:10;;;;;;;8.03;4.80;;;;;;;;;;5013981;28;20876;-80
2020/12/21 10:50:55;;;;;;;7.50;4.57;;;;;;;;;;5014413;28;20210;-81
2020/12/21 10:53:40;;;;;;;9.47;4.70;;;;;;;;;;5014331;28;20208;-77
2020/12/21 10:56:24;;;;;;;10.53;4.93;;;;;;;;;;5013870;28;20474;-77
2020/12/21 10:59:09;;;;;;;9.37;5.00;;;;;;;;;;5014678;28;20272;-79
2020/12/21 11:01:53;;;;;;;7.20;4.80;;;;;;;;;;5014671;28;20216;-77
2020/12/21 11:04:38;;;;;;;9.93;5.03;;;;;;;;;;5014499;28;20273;-80
2020/12/21 11:07:22;;;;;;;12.73;5.20;;;;;;;;;;5013774;28;20227;-79
2020/12/21 11:10:09;;;;;;;11.57;5.23;;;;;;;;;;5013999;28;20205;-79
2020/12/21 11:12:53;;;;;;;7.43;4.20;;;;;;;;;;5013770;28;20596;-79
2020/12/21 11:15:38;;;;;;;16.70;5.27;;;;;;;;;;5013620;28;20249;-78
2020/12/21 11:18:23;;;;;;;9.80;4.93;;;;;;;;;;5013428;28;20208;-79
2020/12/21 11:21:08;;;;;;;9.23;5.30;;;;;;;;;;5013685;28;20204;-77
2020/12/21 11:23:52;;;;;;;7.27;4.50;;;;;;;;;;5013991;28;20587;-80
2020/12/21 11:26:38;;;;;;;11.00;5.03;;;;;;;;;;5013328;28;20311;-79
2020/12/21 11:29:22;;;;;;;9.53;4.70;;;;;;;;;;5013932;28;20287;-80
2020/12/21 11:32:06;;;;;;;9.67;5.10;;;;;;;;;;5013655;28;20264;-77
2020/12/21 11:34:51;;;;;;;11.53;5.00;;;;;;;;;;5013678;28;20201;-81
2020/12/21 11:37:36;;;;;;;10.17;4.77;;;;;;;;;;5013259;28;20215;-75
2020/12/21 11:40:20;;;;;;;11.87;5.37;;;;;;;;;;5013232;28;20726;-76
2020/12/21 11:43:05;;;;;;;10.77;5.70;;;;;;;;;;5013715;28;20543;-76
2020/12/21 11:45:51;;;;;;;10.37;5.47;;;;;;;;;;5012982;28;20232;-76
2020/12/21 11:48:35;;;;;;;9.20;6.10;;;;;;;;;;5013266;28;20215;-77
2020/12/21 11:51:20;;;;;;;8.00;5.47;;;;;;;;;;5013331;28;20239;-76
2020/12/21 11:54:04;;;;;;;10.47;5.63;;;;;;;;;;5013300;28;20260;-75
2020/12/21 11:56:49;;;;;;;9.10;5.13;;;;;;;;;;5012508;28;20326;-76
2020/12/21 11:59:34;;;;;;;12.03;5.70;;;;;;;;;;5013405;28;20204;-76
2020/12/21 12:02:19;;;;;;;12.00;6.97;;;;;;;;;;5012139;28;20403;-77
2020/12/21 12:05:04;;;;;;;9.73;6.00;;;;;;;;;;5013332;28;20291;-76
2020/12/21 12:07:49;;;;;;;10.83;5.27;;;;;;;;;;5012618;28;20209;-75
2020/12/21 12:10:33;;;;;;;10.43;5.10;;;;;;;;;;5013062;28;20322;-76
2020/12/21 12:13:17;;;;;;;12.23;6.27;;;;;;;;;;5013042;28;20205;-75
2020/12/21 12:16:03;;;;;;;11.57;5.50;;;;;;;;;;5012296;28;20284;-76
2020/12/21 12:18:47;;;;;;;10.30;5.30;;;;;;;;;;5012621;28;20212;-78
2020/12/21 12:21:32;;;;;;;8.60;5.30;;;;;;;;;;5012700;28;20205;-76
2020/12/21 12:24:16;;;;;;;10.33;5.53;;;;;;;;;;5012617;28;20209;-77
2020/12/21 12:27:02;;;;;;;11.37;5.73;;;;;;;;;;5012026;28;20268;-77
2020/12/21 12:29:47;;;;;;;8.00;5.23;;;;;;;;;;5012410;28;20209;-77
2020/12/21 12:32:32;;;;;;;12.93;5.67;;;;;;;;;;5012572;28;20195;-79
2020/12/21 12:35:17;;;;;;;10.07;5.63;;;;;;;;;;5012208;28;20220;-78
2020/12/21 12:38:01;;;;;;;9.93;5.40;;;;;;;;;;5012016;28;20256;-76
2020/12/21 12:40:46;;;;;;;12.40;5.90;;;;;;;;;;5012129;28;20225;-76
2020/12/21 12:43:30;;;;;;;12.53;5.87;;;;;;;;;;5012338;28;20596;-76
2020/12/21 12:46:15;;;;;;;8.73;5.20;;;;;;;;;;5011969;28;20287;-75
2020/12/21 12:49:01;;;;;;;11.63;5.77;;;;;;;;;;5012233;28;20577;-76
2020/12/21 12:51:46;;;;;;;9.97;5.27;;;;;;;;;;5011397;28;20703;-76
2020/12/21 12:54:30;;;;;;;12.17;6.33;;;;;;;;;;5012175;28;20251;-76
2020/12/21 12:57:15;;;;;;;10.30;5.53;;;;;;;;;;5011296;28;20306;-76
2020/12/21 13:00:00;;;;;;;9.63;5.53;;;;;;;;;;5012134;28;20200;-77
2020/12/21 13:02:45;;;;;;;10.80;5.40;;;;;;;;;;5012086;28;20736;-76
2020/12/21 13:05:30;;;;;;;7.83;4.80;;;;;;;;;;5012086;28;20747;-76
2020/12/21 13:08:15;;;;;;;11.63;5.03;;;;;;;;;;5012039;28;20207;-75
2020/12/21 13:10:59;;;;;;;8.90;4.53;;;;;;;;;;5012114;28;20221;-76
2020/12/21 13:13:44;;;;;;;9.17;4.80;;;;;;;;;;5011484;28;20227;-74
2020/12/21 13:16:28;;;;;;;10.27;6.60;;;;;;;;;;5009477;28;20340;-75
2020/12/21 13:19:13;;;;;;;8.20;4.63;;;;;;;;;;5010838;28;20312;-75
2020/12/21 13:21:58;;;;;;;9.13;4.87;;;;;;;;;;5011834;28;20639;-75
2020/12/21 13:24:42;;;;;;;6.90;4.50;;;;;;;;;;5011492;28;20229;-75
2020/12/21 13:27:27;;;;;;;8.97;4.60;;;;;;;;;;5011078;28;20696;-75
2020/12/21 13:30:14;;;;;;;9.37;4.87;;;;;;;;;;5011797;28;20341;-75
2020/12/21 13:32:58;;;;;;;6.70;4.23;;;;;;;;;;5011579;28;20221;-76
2020/12/21 13:35:43;;;;;;;5.57;4.23;;;;;;;;;;5011452;28;20273;-75
2020/12/21 13:38:28;;;;;;;9.03;4.73;;;;;;;;;;5011604;28;20205;-75
2020/12/21 13:41:13;;;;;;;9.80;5.60;;;;;;;;;;5010802;28;20503;-75
2020/12/21 13:43:57;;;;;;;10.27;4.90;;;;;;;;;;5011558;28;20206;-74
2020/12/21 13:46:42;;;;;;;7.63;4.70;;;;;;;;;;5010679;28;20756;-75
2020/12/21 13:49:27;;;;;;;7.87;4.60;;;;;;;;;;5011506;28;20209;-75
2020/12/21 13:52:11;;;;;;;6.77;4.43;;;;;;;;;;5011477;28;20306;-75
2020/12/21 13:54:56;;;;;;;6.53;4.10;;;;;;;;;;5011275;28;20275;-75
2020/12/21 13:57:41;;;;;;;7.07;4.27;;;;;;;;;;5010636;28;20639;-75
2020/12/21 14:00:25;;;;;;;5.93;4.03;;;;;;;;;;5011469;28;20229;-77
2020/12/21 14:03:10;;;;;;;6.40;4.00;;;;;;;;;;5011173;28;20213;-76
2020/12/21 14:05:54;;;;;;;7.10;4.03;;;;;;;;;;5010841;28;20251;-76
2020/12/21 14:08:39;;;;;;;8.00;3.93;;;;;;;;;;5011273;28;20212;-76
2020/12/21 14:11:24;;;;;;;6.10;3.70;;;;;;;;;;5011614;28;20566;-76
2020/12/21 14:14:08;;;;;;;8.43;4.13;;;;;;;;;;5011292;28;20202;-76
2020/12/21 14:16:53;;;;;;;7.00;4.37;;;;;;;;;;5010487;28;20233;-76
2020/12/21 14:19:37;;;;;;;9.47;4.20;;;;;;;;;;5010955;28;20201;-76
2020/12/21 14:22:22;;;;;;;10.63;4.17;;;;;;;;;;5011195;28;20270;-76
2020/12/21 14:25:06;;;;;;;6.03;3.80;;;;;;;;;;5010979;28;20264;-76
2020/12/21 14:27:52;;;;;;;6.97;4.23;;;;;;;;;;5010534;28;20680;-76
2020/12/21 14:30:36;;;;;;;6.90;4.10;;;;;;;;;;5010994;28;20209;-76
2020/12/21 14:33:21;;;;;;;6.97;3.90;;;;;;;;;;5011105;28;20208;-76
2020/12/21 14:36:05;;;;;;;7.20;4.03;;;;;;;;;;5010363;28;20301;-75
2020/12/21 14:38:50;;;;;;;5.73;3.83;;;;;;;;;;5011012;28;20789;-75
2020/12/21 14:41:40;;;;;;;6.73;4.17;;;;;;;;;;5010957;28;20692;-75
2020/12/21 14:44:25;;;;;;;7.03;3.87;;;;;;;;;;5010867;28;20203;-75
2020/12/21 14:47:09;;;;;;;7.03;3.80;;;;;;;;;;5010367;28;20356;-75
2020/12/21 14:49:54;;;;;;;5.87;3.70;;;;;;;;;;5010873;28;20341;-76
2020/12/21 14:52:38;;;;;;;4.60;3.60;;;;;;;;;;5010819;28;20248;-76
2020/12/21 14:55:23;;;;;;;5.90;3.43;;;;;;;;;;5010716;28;20329;-76
2020/12/21 14:58:07;;;;;;;5.67;3.67;;;;;;;;;;5010370;28;20209;-76
2020/12/21 15:00:56;;;;;;;5.00;3.30;;;;;;;;;;5010852;28;20207;-76
2020/12/21 15:03:40;;;;;;;5.17;3.97;;;;;;;;;;5010734;28;20661;-75
2020/12/21 15:06:25;;;;;;;4.33;3.83;;;;;;;;;;5010259;28;20225;-76
2020/12/21 15:09:09;;;;;;;5.73;3.63;;;;;;;;;;5010727;28;20196;-76
2020/12/21 15:11:54;;;;;;;5.87;3.77;;;;;;;;;;5010761;28;20201;-75
2020/12/21 15:14:38;;;;;;;4.80;3.33;;;;;;;;;;5010737;28;20225;-75
2020/12/21 15:17:24;;;;;;;4.50;3.20;;;;;;;;;;5013633;28;20595;-76
2020/12/21 15:20:08;;;;;;;5.53;4.80;;;;;;;;;;5012879;28;20471;-76
2020/12/21 15:22:53;;;;;;;4.60;3.70;;;;;;;;;;5014267;28;20284;-76
2020/12/21 15:25:37;;;;;;;5.23;3.77;;;;;;;;;;5013843;28;20221;-76
2020/12/21 15:28:22;;;;;;;4.70;3.97;;;;;;;;;;5013666;28;20234;-76
2020/12/21 15:31:06;;;;;;;5.63;4.00;;;;;;;;;;5013935;28;20261;-76
2020/12/21 15:33:51;;;;;;;7.00;4.30;;;;;;;;;;5013769;28;20222;-77
2020/12/21 15:36:36;;;;;;;5.43;3.77;;;;;;;;;;5013049;28;20228;-77
2020/12/21 15:39:20;;;;;;;5.33;4.30;;;;;;;;;;5013445;28;20201;-78
2020/12/21 15:42:05;;;;;;;6.07;3.90;;;;;;;;;;5003320;28;20700;-76
2020/12/21 15:44:49;;;;;;;4.67;3.57;;;;;;;;;;5003452;28;20206;-75
2020/12/21 15:47:34;;;;;;;4.13;3.67;;;;;;;;;;4993126;28;20265;-74
2020/12/21 15:50:19;;;;;;;5.03;4.60;;;;;;;;;;4993908;28;20568;-72
2020/12/21 15:53:03;;;;;;;5.23;4.63;;;;;;;;;;4993424;28;20247;-72
2020/12/21 15:55:48;;;;;;;5.73;5.03;;;;;;;;;;4993334;28;20225;-73
2020/12/21 15:58:32;;;;;;;6.77;4.40;;;;;;;;;;5010811;28;20723;-73
2020/12/21 16:01:17;;;;;;;4.13;3.83;;;;;;;;;;5013341;28;20680;-72
2020/12/21 16:04:01;;;;;;;4.90;4.40;;;;;;;;;;5013308;28;20287;-73
2020/12/21 16:06:47;;;;;;;4.80;4.30;;;;;;;;;;5012666;28;20641;-73
2020/12/21 16:09:32;;;;;;;4.73;3.90;;;;;;;;;;5013041;28;20246;-74
2020/12/21 16:12:17;;;;;;;4.80;4.40;;;;;;;;;;5013281;28;20203;-75
2020/12/21 16:15:01;;;;;;;6.73;4.37;;;;;;;;;;5000232;28;20230;-75
2020/12/21 16:17:46;;;;;;;4.80;4.40;;;;;;;;;;4992488;28;20706;-74